Time;durP1;ratioP1;P1;durP2;ratioP2;P2;SDS_P1;SDS_P2;PMS_P1;PMS_P2;Temp;Humidity;BMP_temperature;BMP_pressure;BME280_temperature;BME280_humidity;BME280_pressure;Samples;Min_cycle;Max_cycle;Signal;HPM_P1;HPM_P2
2022/10/01 00:01:07;;;;;;;7.27;4.13;;;;;;;11.58;77.16;100049.41;5052326;28;20389;-74
2022/10/01 00:03:34;;;;;;;5.57;4.50;;;;;;;11.54;77.32;100053.72;5050899;28;20492;-74
2022/10/01 00:06:05;;;;;;;6.55;3.95;;;;;;;11.59;77.47;100053.75;5050917;28;20426;-74
2022/10/01 00:08:31;;;;;;;6.35;4.40;;;;;;;11.60;77.24;100063.53;5058430;28;20491;-74
2022/10/01 00:11:00;;;;;;;4.73;3.93;;;;;;;11.55;77.31;100051.81;5055396;28;20415;-74
2022/10/01 00:13:26;;;;;;;5.15;3.90;;;;;;;11.56;77.61;100048.84;5050832;28;20791;-75
2022/10/01 00:15:52;;;;;;;8.07;4.28;;;;;;;11.52;77.27;100055.88;5050680;28;20899;-74
2022/10/01 00:18:17;;;;;;;3.70;3.37;;;;;;;11.45;77.68;100050.69;5047267;28;20407;-73
2022/10/01 00:20:43;;;;;;;5.78;4.13;;;;;;;11.36;77.96;100054.94;5046788;28;20396;-74
2022/10/01 00:23:09;;;;;;;6.03;3.90;;;;;;;11.35;78.10;100058.75;5051810;28;20448;-74
2022/10/01 00:25:35;;;;;;;7.85;4.50;;;;;;;11.39;77.73;100057.13;5049636;28;20409;-74
2022/10/01 00:28:01;;;;;;;5.57;3.58;;;;;;;11.45;77.49;100066.97;5033879;28;20749;-74
2022/10/01 00:30:26;;;;;;;4.35;3.47;;;;;;;11.47;77.53;100066.69;5051900;28;20382;-74
2022/10/01 00:32:55;;;;;;;9.20;3.90;;;;;;;11.51;77.41;100064.28;5051380;28;20436;-74
2022/10/01 00:35:21;;;;;;;9.40;3.65;;;;;;;11.56;77.02;100070.53;5049973;28;20492;-74
2022/10/01 00:37:51;;;;;;;5.85;3.88;;;;;;;11.55;77.21;100059.97;5051939;28;20430;-74
2022/10/01 00:40:18;;;;;;;5.70;4.20;;;;;;;11.50;77.10;100054.50;5051785;28;20397;-74
2022/10/01 00:42:44;;;;;;;3.90;3.60;;;;;;;11.48;77.18;100051.22;5051841;28;20876;-74
2022/10/01 00:45:11;;;;;;;6.53;4.00;;;;;;;11.42;77.29;100047.66;5050625;28;20895;-74
2022/10/01 00:47:45;;;;;;;3.97;3.58;;;;;;;11.44;77.29;100046.31;5033681;28;20485;-74
2022/10/01 00:50:19;;;;;;;3.72;3.35;;;;;;;11.49;77.13;100040.13;5051613;28;20396;-74
2022/10/01 00:52:53;;;;;;;4.88;3.88;;;;;;;11.52;77.11;100044.22;5050445;28;20732;-74
2022/10/01 00:55:24;;;;;;;4.65;3.33;;;;;;;11.50;77.01;100046.34;5050496;28;20401;-74
2022/10/01 00:57:50;;;;;;;5.30;3.43;;;;;;;11.39;77.36;100035.41;5051646;28;20386;-74
2022/10/01 01:00:16;;;;;;;5.93;3.42;;;;;;;11.40;77.54;100042.50;5062325;28;20456;-74
2022/10/01 01:02:42;;;;;;;4.00;2.95;;;;;;;11.48;77.41;100033.06;5051418;28;20480;-74
2022/10/01 01:05:12;;;;;;;3.63;3.33;;;;;;;11.50;77.42;100035.50;5047118;28;20811;-74
2022/10/01 01:07:39;;;;;;;3.15;2.85;;;;;;;11.45;77.41;100030.88;5050408;28;20417;-75
2022/10/01 01:10:06;;;;;;;2.97;2.67;;;;;;;11.44;77.37;100030.03;5051417;28;20389;-74
2022/10/01 01:12:53;;;;;;;2.88;2.65;;;;;;;11.43;77.42;100031.13;5051215;28;20386;-74
2022/10/01 01:15:36;;;;;;;8.88;3.55;;;;;;;11.47;77.19;100023.28;5049915;28;20405;-74
2022/10/01 01:18:16;;;;;;;4.05;3.10;;;;;;;11.48;77.14;100014.06;5051627;28;20447;-74
2022/10/01 01:20:44;;;;;;;5.60;3.10;;;;;;;11.49;77.23;100004.03;5051306;28;20393;-74
2022/10/01 01:23:15;;;;;;;2.58;2.40;;;;;;;11.46;77.29;100005.34;5033517;28;20483;-74
2022/10/01 01:25:54;;;;;;;2.60;2.40;;;;;;;11.44;77.50;99994.78;5049077;28;20497;-74
2022/10/01 01:28:24;;;;;;;8.23;2.35;;;;;;;11.44;77.51;99997.50;5036005;28;20447;-74
2022/10/01 01:30:55;;;;;;;3.55;2.35;;;;;;;11.42;77.64;99991.50;5054634;28;20404;-74
2022/10/01 01:33:22;;;;;;;2.38;2.17;;;;;;;11.48;77.75;99977.97;5053741;28;20431;-74
2022/10/01 01:35:53;;;;;;;2.65;2.15;;;;;;;11.49;77.65;99983.16;5054037;28;20397;-74
2022/10/01 01:38:27;;;;;;;8.40;2.50;;;;;;;11.48;77.53;99977.97;5055149;28;20488;-74
2022/10/01 01:40:55;;;;;;;4.88;2.60;;;;;;;11.49;77.64;99976.91;5055278;28;20451;-74
2022/10/01 01:43:28;;;;;;;3.10;2.00;;;;;;;11.46;77.72;99984.47;5053757;28;20419;-74
2022/10/01 01:45:53;;;;;;;3.72;2.13;;;;;;;11.49;77.88;99979.63;5052897;28;20488;-74
2022/10/01 01:48:22;;;;;;;3.07;2.77;;;;;;;11.53;77.62;99976.09;5036867;28;20485;-74
2022/10/01 01:50:56;;;;;;;4.93;2.20;;;;;;;11.58;77.69;99965.28;5063374;28;20712;-74
2022/10/01 01:53:22;;;;;;;3.70;1.92;;;;;;;11.58;77.60;99967.19;5056795;28;20723;-74
2022/10/01 01:55:48;;;;;;;4.25;1.88;;;;;;;11.58;77.73;99968.00;5053715;28;20409;-74
2022/10/01 01:58:17;;;;;;;3.58;2.10;;;;;;;11.59;77.68;99972.31;5054597;28;20394;-74
2022/10/01 02:00:43;;;;;;;3.17;2.20;;;;;;;11.60;77.69;99968.53;5054547;28;20488;-74
2022/10/01 02:03:09;;;;;;;5.20;2.47;;;;;;;11.66;77.57;99972.91;5054434;28;20492;-74
2022/10/01 02:05:42;;;;;;;1.83;1.73;;;;;;;11.68;77.55;99970.75;5052975;28;20881;-74
2022/10/01 02:08:30;;;;;;;7.65;1.83;;;;;;;11.70;77.40;99965.91;5054217;28;20484;-74
2022/10/01 02:17:29;;;;;;;3.65;1.30;;;;;;;11.77;76.85;99962.94;5052163;28;20389;-74
2022/10/01 02:20:04;;;;;;;1.52;1.42;;;;;;;11.81;76.75;99945.06;5044151;28;20850;-74
2022/10/01 02:22:51;;;;;;;4.10;1.40;;;;;;;11.83;76.36;99938.28;5054163;28;20409;-74
2022/10/01 02:25:18;;;;;;;4.57;1.55;;;;;;;11.84;76.31;99941.81;5052201;28;20895;-74
2022/10/01 02:27:51;;;;;;;3.25;1.23;;;;;;;11.84;76.12;99939.09;5035020;28;20512;-74
2022/10/01 02:30:17;;;;;;;2.17;1.25;;;;;;;11.85;75.97;99936.13;5047650;28;20859;-74
2022/10/01 02:32:46;;;;;;;2.28;1.35;;;;;;;11.88;75.79;99937.50;5053450;28;20427;-74
2022/10/01 02:35:15;;;;;;;2.80;1.30;;;;;;;11.91;75.45;99937.78;5052702;28;20381;-74
2022/10/01 02:37:43;;;;;;;1.20;1.20;;;;;;;11.94;75.49;99928.28;5054036;28;20465;-74
2022/10/01 02:40:14;;;;;;;1.95;1.25;;;;;;;11.96;75.03;99926.91;5053465;28;20462;-74
2022/10/01 02:42:42;;;;;;;1.20;1.20;;;;;;;11.98;74.77;99934.81;5067857;28;20468;-74
2022/10/01 02:45:10;;;;;;;1.27;1.20;;;;;;;11.99;74.92;99939.16;5053503;28;20432;-74
2022/10/01 02:47:40;;;;;;;1.53;0.80;;;;;;;11.95;75.07;99948.94;5053616;28;20903;-74
2022/10/01 02:50:07;;;;;;;1.10;1.00;;;;;;;11.96;74.97;99945.94;5052474;28;20397;-74
2022/10/01 02:52:44;;;;;;;1.10;0.95;;;;;;;12.00;74.78;99931.81;5053710;28;20748;-74
2022/10/01 02:55:17;;;;;;;1.65;1.17;;;;;;;11.98;74.87;99945.69;5052834;28;20402;-74
2022/10/01 02:57:43;;;;;;;2.13;1.10;;;;;;;11.96;75.13;99945.94;5053173;28;20393;-74
2022/10/01 03:00:15;;;;;;;1.50;1.20;;;;;;;11.98;75.13;99936.72;5058010;28;20393;-74
2022/10/01 03:02:40;;;;;;;2.45;1.40;;;;;;;11.98;74.81;99932.09;5053441;28;20401;-74
2022/10/01 03:05:06;;;;;;;3.23;1.17;;;;;;;12.01;75.01;99939.72;5053388;28;20400;-74
2022/10/01 03:07:34;;;;;;;0.98;0.98;;;;;;;12.01;74.95;99937.00;5052034;28;20768;-74
2022/10/01 03:10:00;;;;;;;11.32;1.33;;;;;;;12.03;74.88;99925.84;5053373;28;20942;-73
2022/10/01 03:12:26;;;;;;;3.45;1.23;;;;;;;12.03;74.79;99915.81;5053347;28;20421;-74
2022/10/01 03:14:52;;;;;;;2.90;1.23;;;;;;;12.02;74.52;99922.31;5053094;28;20479;-74
2022/10/01 03:17:18;;;;;;;1.50;1.10;;;;;;;12.01;74.76;99912.56;5051952;28;20409;-74
2022/10/01 03:19:43;;;;;;;1.50;1.40;;;;;;;12.01;74.41;99922.59;5050639;28;20749;-74
2022/10/01 03:22:12;;;;;;;2.07;1.00;;;;;;;12.02;74.57;99921.53;5053140;28;20401;-74
2022/10/01 03:24:38;;;;;;;1.40;1.30;;;;;;;12.00;74.58;99908.19;5049071;28;20472;-74
2022/10/01 03:27:03;;;;;;;1.47;1.30;;;;;;;11.98;74.45;99910.38;5046329;28;20414;-74
2022/10/01 03:29:29;;;;;;;2.80;1.40;;;;;;;12.02;74.48;99899.78;5051659;28;20421;-74
2022/10/01 03:31:54;;;;;;;1.40;1.30;;;;;;;12.03;74.46;99894.09;5052798;28;20389;-73
2022/10/01 03:34:20;;;;;;;1.05;1.05;;;;;;;12.06;74.17;99898.97;5052820;28;20407;-74
2022/10/01 03:36:46;;;;;;;2.13;0.90;;;;;;;12.05;74.25;99891.09;5049494;28;20402;-74
2022/10/01 03:39:12;;;;;;;2.25;1.90;;;;;;;12.05;74.02;99889.22;5053003;28;20760;-74
2022/10/01 03:41:37;;;;;;;1.92;1.83;;;;;;;12.06;74.20;99882.69;5034891;28;20386;-74
2022/10/01 03:44:03;;;;;;;2.03;1.93;;;;;;;12.08;73.94;99894.09;5052677;28;20892;-74
2022/10/01 03:46:29;;;;;;;1.50;1.30;;;;;;;12.07;74.02;99891.66;5051544;28;20425;-74
2022/10/01 03:48:56;;;;;;;1.67;1.30;;;;;;;12.09;73.98;99889.47;5053468;28;20432;-74
2022/10/01 03:51:22;;;;;;;2.73;1.20;;;;;;;12.10;73.82;99886.50;5057379;28;20400;-74
2022/10/01 03:53:47;;;;;;;1.27;1.00;;;;;;;12.10;73.68;99880.25;5052321;28;20386;-74
2022/10/01 03:56:14;;;;;;;2.08;1.05;;;;;;;12.10;73.84;99872.91;5050722;28;20800;-74
2022/10/01 03:58:39;;;;;;;4.68;0.90;;;;;;;12.09;73.67;99874.00;5052420;28;20389;-74
2022/10/01 04:01:04;;;;;;;8.85;1.40;;;;;;;12.12;73.81;99878.09;5045865;28;20416;-74
2022/10/01 04:03:30;;;;;;;4.07;1.30;;;;;;;12.13;73.45;99858.78;5043476;28;20431;-74
2022/10/01 04:05:56;;;;;;;1.20;1.00;;;;;;;12.13;73.83;99866.94;5047604;28;20423;-74
2022/10/01 04:08:22;;;;;;;2.70;1.17;;;;;;;12.12;73.60;99864.50;5050161;28;20803;-74
2022/10/01 04:10:48;;;;;;;1.60;1.50;;;;;;;12.14;73.59;99863.16;5045570;28;20401;-74
2022/10/01 04:13:14;;;;;;;1.20;1.20;;;;;;;12.16;73.37;99860.97;5050784;28;20459;-74
2022/10/01 04:15:39;;;;;;;3.20;1.02;;;;;;;12.18;73.46;99861.53;5051959;28;20394;-74
2022/10/01 04:18:05;;;;;;;0.95;0.95;;;;;;;12.19;73.18;99860.44;5047478;28;20425;-74
2022/10/01 04:20:35;;;;;;;1.10;1.03;;;;;;;12.19;73.21;99852.28;5045668;28;20397;-74
2022/10/01 04:23:00;;;;;;;2.60;0.90;;;;;;;12.23;73.04;99858.00;5052501;28;20825;-74
2022/10/01 04:25:27;;;;;;;1.20;0.97;;;;;;;12.27;73.03;99859.91;5052005;28;20412;-74
2022/10/01 04:27:55;;;;;;;1.85;1.00;;;;;;;12.27;72.63;99857.19;5051153;28;20394;-74
2022/10/01 04:30:21;;;;;;;0.93;0.93;;;;;;;12.28;72.53;99856.09;5050210;28;20409;-74
2022/10/01 04:32:46;;;;;;;2.30;1.50;;;;;;;12.29;72.59;99862.34;5051021;28;20486;-74
2022/10/01 04:35:12;;;;;;;2.90;2.13;;;;;;;12.30;73.04;99864.78;5051706;28;20401;-74
2022/10/01 04:37:38;;;;;;;2.85;1.33;;;;;;;12.34;72.57;99876.75;5050419;28;20436;-74
2022/10/01 04:40:04;;;;;;;1.38;1.27;;;;;;;12.33;73.09;99877.84;5046686;28;20391;-74
2022/10/01 04:42:29;;;;;;;3.60;1.00;;;;;;;12.29;73.41;99867.78;5049615;28;20405;-74
2022/10/01 04:44:56;;;;;;;1.20;1.10;;;;;;;12.32;73.64;99869.94;5050021;28;20722;-74
2022/10/01 04:47:21;;;;;;;1.47;0.70;;;;;;;12.34;73.84;99865.91;5046420;28;20398;-74
2022/10/01 04:49:46;;;;;;;1.40;1.03;;;;;;;12.27;74.50;99867.25;5042166;28;20749;-74
2022/10/01 04:52:12;;;;;;;2.00;0.90;;;;;;;12.21;75.21;99863.72;5041260;28;20394;-74
2022/10/01 04:54:37;;;;;;;1.10;1.10;;;;;;;12.19;75.73;99860.44;5050311;28;20422;-74
2022/10/01 04:57:02;;;;;;;2.00;1.00;;;;;;;12.13;76.00;99858.78;5050205;28;20466;-74
2022/10/01 04:59:27;;;;;;;1.23;1.13;;;;;;;12.08;76.86;99869.66;5051252;28;20885;-74
2022/10/01 05:01:53;;;;;;;1.13;0.90;;;;;;;12.02;77.61;99850.91;5044817;28;20744;-74
2022/10/01 05:04:18;;;;;;;1.53;1.47;;;;;;;11.90;78.27;99857.41;5051679;28;20424;-74
2022/10/01 05:06:43;;;;;;;5.10;1.60;;;;;;;11.76;79.63;99852.72;5054129;28;21017;-74
2022/10/01 05:09:09;;;;;;;3.77;1.10;;;;;;;11.74;80.05;99842.16;5055460;28;20401;-74
2022/10/01 05:11:34;;;;;;;1.37;1.10;;;;;;;11.75;80.29;99845.69;5055607;28;20867;-74
2022/10/01 05:13:59;;;;;;;1.80;0.90;;;;;;;11.72;80.60;99849.72;5055793;28;20416;-74
2022/10/01 05:16:25;;;;;;;2.50;1.30;;;;;;;11.72;80.72;99840.78;5053056;28;20413;-74
2022/10/01 05:18:50;;;;;;;1.10;1.10;;;;;;;11.72;81.15;99846.22;5054492;28;20416;-74
2022/10/01 05:21:15;;;;;;;1.10;1.10;;;;;;;11.74;81.11;99850.28;5054489;28;20796;-74
2022/10/01 05:23:41;;;;;;;1.97;0.97;;;;;;;11.73;81.29;99837.78;5054735;28;20417;-74
2022/10/01 05:26:07;;;;;;;2.10;1.20;;;;;;;11.73;81.31;99834.25;5034914;28;20916;-74
2022/10/01 05:28:34;;;;;;;6.57;3.65;;;;;;;11.71;81.43;99831.00;5032541;28;20787;-74
2022/10/01 05:31:03;;;;;;;2.50;1.05;;;;;;;11.69;81.51;99831.22;5044970;28;20414;-74
2022/10/01 05:33:32;;;;;;;2.08;1.10;;;;;;;11.73;81.29;99828.84;5054280;28;20443;-74
2022/10/01 05:35:58;;;;;;;5.90;1.35;;;;;;;11.76;81.02;99806.59;5052481;28;20433;-74
2022/10/01 05:38:24;;;;;;;1.80;1.13;;;;;;;11.78;80.93;99807.16;5054966;28;20498;-74
2022/10/01 05:40:50;;;;;;;1.67;1.25;;;;;;;11.79;80.87;99811.47;5054999;28;20474;-74
2022/10/01 05:43:16;;;;;;;2.13;1.50;;;;;;;11.84;80.96;99798.75;5054881;28;20501;-74
2022/10/01 05:45:42;;;;;;;1.05;1.05;;;;;;;11.88;80.58;99799.84;5054865;28;20455;-74
2022/10/01 05:48:08;;;;;;;1.57;1.00;;;;;;;11.91;80.39;99793.06;5052362;28;20389;-74
2022/10/01 05:50:39;;;;;;;2.63;1.30;;;;;;;11.94;80.46;99789.78;5051583;28;20401;-73
2022/10/01 05:53:05;;;;;;;2.47;1.67;;;;;;;11.94;80.17;99787.91;5054532;28;20487;-74
2022/10/01 05:55:32;;;;;;;5.28;2.47;;;;;;;11.96;80.37;99790.31;5053000;28;20394;-74
2022/10/01 05:58:00;;;;;;;2.72;1.67;;;;;;;11.88;80.57;99794.41;5054639;28;20474;-74
2022/10/01 06:00:29;;;;;;;2.67;1.40;;;;;;;11.82;80.97;99784.59;5053376;28;20404;-74
2022/10/01 06:02:56;;;;;;;1.38;1.27;;;;;;;11.85;80.96;99783.28;5050115;28;20408;-74
2022/10/01 06:05:21;;;;;;;2.83;1.20;;;;;;;11.83;80.73;99805.25;5054353;28;20398;-74
2022/10/01 06:07:48;;;;;;;2.83;1.00;;;;;;;11.78;81.13;99820.72;5054362;28;20412;-74
2022/10/01 06:10:14;;;;;;;1.60;1.50;;;;;;;11.76;81.09;99831.00;5043055;28;20397;-74
2022/10/01 06:12:39;;;;;;;2.50;1.30;;;;;;;11.76;81.31;99829.13;5062108;28;20388;-73
2022/10/01 06:15:05;;;;;;;3.33;1.43;;;;;;;11.82;81.25;99819.91;5057255;28;20421;-74
2022/10/01 06:17:30;;;;;;;3.30;0.93;;;;;;;11.80;81.32;99816.66;5054410;28;20432;-74
2022/10/01 06:19:56;;;;;;;1.40;0.90;;;;;;;11.85;81.37;99816.66;5054249;28;20394;-74
2022/10/01 06:22:21;;;;;;;2.78;0.90;;;;;;;11.85;81.29;99834.84;5054067;28;20454;-74
2022/10/01 06:24:46;;;;;;;1.10;0.73;;;;;;;11.83;81.19;99824.25;5049741;28;20490;-74
2022/10/01 06:27:11;;;;;;;0.90;0.90;;;;;;;11.84;81.24;99830.50;5036028;28;20417;-74
2022/10/01 06:29:37;;;;;;;1.37;1.03;;;;;;;11.84;81.50;99834.03;5024050;28;20421;-74
2022/10/01 06:32:02;;;;;;;3.50;1.10;;;;;;;11.85;81.38;99821.28;5054063;28;20397;-74
2022/10/01 06:34:27;;;;;;;1.60;0.87;;;;;;;11.83;81.70;99813.38;5027648;28;20897;-74
2022/10/01 06:36:53;;;;;;;1.27;0.90;;;;;;;11.85;81.25;99800.38;5051801;28;20405;-74
2022/10/01 06:39:18;;;;;;;1.50;1.03;;;;;;;11.81;81.43;99812.03;5053725;28;20459;-74
2022/10/01 06:41:43;;;;;;;2.30;0.82;;;;;;;11.79;82.00;99823.16;5053599;28;20766;-74
2022/10/01 06:44:09;;;;;;;1.80;1.07;;;;;;;11.84;82.02;99816.94;5053157;28;20420;-74
2022/10/01 06:46:35;;;;;;;1.40;0.90;;;;;;;11.82;81.94;99811.75;5053789;28;20480;-74
2022/10/01 06:49:00;;;;;;;2.53;1.08;;;;;;;11.82;82.11;99808.25;5057455;28;20396;-74
2022/10/01 06:54:10;;;;;;;1.95;1.20;;;;;;;11.83;82.62;99797.09;5053783;28;20395;-75
2022/10/01 06:56:35;;;;;;;1.20;1.03;;;;;;;11.85;82.75;99788.72;5035301;28;20394;-74
2022/10/01 06:59:01;;;;;;;3.00;1.10;;;;;;;11.88;82.79;99791.69;5053654;28;20824;-74
2022/10/01 07:01:27;;;;;;;2.42;1.08;;;;;;;11.84;82.62;99784.34;5053165;28;20408;-74
2022/10/01 07:03:53;;;;;;;2.20;1.27;;;;;;;11.79;83.34;99790.56;5053431;28;20405;-75
2022/10/01 07:06:18;;;;;;;2.43;1.10;;;;;;;11.86;83.17;99795.75;5053253;28;20432;-74
2022/10/01 07:08:43;;;;;;;1.27;0.97;;;;;;;11.86;83.05;99807.44;5053174;28;20484;-74
2022/10/01 07:11:09;;;;;;;1.40;1.20;;;;;;;11.88;83.31;99805.28;5028023;28;20405;-74
2022/10/01 07:13:34;;;;;;;2.07;1.20;;;;;;;11.84;83.59;99804.19;5053378;28;20478;-74
2022/10/01 07:16:02;;;;;;;0.90;0.80;;;;;;;11.89;83.54;99803.34;5053194;28;20480;-74
2022/10/01 07:18:28;;;;;;;1.30;1.20;;;;;;;11.89;83.59;99797.91;5049587;28;20433;-74
2022/10/01 07:20:58;;;;;;;1.37;0.90;;;;;;;11.86;84.16;99812.03;5052963;28;20429;-74
2022/10/01 07:23:23;;;;;;;1.50;1.05;;;;;;;11.84;84.44;99790.59;5052628;28;20456;-74
2022/10/01 07:25:49;;;;;;;3.80;0.80;;;;;;;11.87;84.19;99798.19;5051168;28;20429;-74
2022/10/01 07:28:22;;;;;;;2.38;1.02;;;;;;;11.91;84.24;99795.78;5051553;28;20393;-74
2022/10/01 07:31:03;;;;;;;1.75;1.35;;;;;;;11.96;84.13;99806.63;5057454;28;20392;-74
2022/10/01 07:33:29;;;;;;;2.20;1.20;;;;;;;11.96;84.04;99799.28;5045038;28;20401;-74
2022/10/01 07:35:54;;;;;;;1.47;1.00;;;;;;;12.01;84.09;99808.53;5031026;28;20430;-74
2022/10/01 07:38:19;;;;;;;1.53;1.00;;;;;;;11.99;83.81;99814.22;5052337;28;20424;-74
2022/10/01 07:40:50;;;;;;;1.45;0.98;;;;;;;11.99;84.04;99808.00;5051199;28;20401;-74
2022/10/01 07:43:16;;;;;;;3.10;2.90;;;;;;;12.03;83.96;99814.50;5046767;28;20413;-74
2022/10/01 07:45:43;;;;;;;1.23;1.23;;;;;;;12.02;83.68;99835.41;5052084;28;20427;-74
2022/10/01 07:48:08;;;;;;;1.13;0.97;;;;;;;12.04;83.93;99825.09;5058590;28;20401;-74
2022/10/01 07:50:34;;;;;;;2.07;1.07;;;;;;;12.04;84.00;99822.41;5047568;28;20389;-74
2022/10/01 07:52:59;;;;;;;1.10;1.03;;;;;;;11.98;84.28;99838.94;5051127;28;20459;-74
2022/10/01 07:55:26;;;;;;;2.38;0.90;;;;;;;11.98;84.55;99839.78;5047998;28;20456;-74
2022/10/01 07:57:56;;;;;;;3.25;2.53;;;;;;;12.01;84.47;99838.41;5052599;28;20386;-74
2022/10/01 08:00:25;;;;;;;4.33;1.70;;;;;;;11.98;84.71;99845.19;5050155;28;20820;-74
2022/10/01 08:02:53;;;;;;;2.22;1.52;;;;;;;12.01;84.93;99849.28;5052063;28;20902;-74
2022/10/01 08:05:20;;;;;;;3.83;2.25;;;;;;;12.03;84.90;99855.25;5048121;28;21116;-74
2022/10/01 08:07:47;;;;;;;5.78;2.42;;;;;;;11.95;85.06;99851.19;5049372;28;20413;-74
2022/10/01 08:10:15;;;;;;;6.15;1.88;;;;;;;11.94;85.55;99858.50;5045907;28;20409;-74
2022/10/01 08:12:43;;;;;;;2.50;1.70;;;;;;;12.01;85.45;99857.41;5047988;28;20401;-75
2022/10/01 08:15:14;;;;;;;5.95;2.60;;;;;;;12.05;85.45;99859.34;5047371;28;20407;-74
2022/10/01 08:17:40;;;;;;;3.15;2.17;;;;;;;12.03;85.27;99856.06;5051566;28;20920;-74
2022/10/01 08:20:08;;;;;;;2.78;1.90;;;;;;;12.04;85.51;99865.84;5050615;28;20547;-74
2022/10/01 08:22:33;;;;;;;1.73;1.42;;;;;;;12.01;85.70;99874.53;5051676;28;20390;-74
2022/10/01 08:24:59;;;;;;;2.75;1.80;;;;;;;11.98;85.97;99864.22;5049813;28;20405;-73
2022/10/01 08:27:25;;;;;;;2.67;2.10;;;;;;;12.00;86.27;99862.03;5051851;28;20412;-73
2022/10/01 08:29:50;;;;;;;2.22;1.40;;;;;;;11.99;86.24;99865.81;5049562;28;20394;-74
2022/10/01 08:32:16;;;;;;;2.95;1.42;;;;;;;11.98;86.63;99869.66;5050388;28;20408;-74
2022/10/01 08:34:41;;;;;;;2.13;1.30;;;;;;;11.96;86.48;99866.38;5051724;28;20393;-74
2022/10/01 08:37:06;;;;;;;1.17;1.17;;;;;;;11.98;86.54;99860.69;5051727;28;20403;-74
2022/10/01 08:39:31;;;;;;;3.10;1.20;;;;;;;12.00;86.95;99867.47;5051477;28;20393;-73
2022/10/01 08:42:07;;;;;;;0.90;0.90;;;;;;;12.04;87.01;99865.84;5049464;28;20447;-74
2022/10/01 08:44:40;;;;;;;3.73;1.63;;;;;;;12.04;87.08;99859.59;5050836;28;20915;-74
2022/10/01 08:47:32;;;;;;;3.10;2.22;;;;;;;12.04;87.31;99862.31;5051533;28;20408;-74
2022/10/01 08:50:04;;;;;;;4.53;2.10;;;;;;;12.02;87.12;99878.84;5021282;28;20478;-74
2022/10/01 08:52:36;;;;;;;1.98;1.67;;;;;;;11.97;87.45;99862.56;5046977;28;20409;-74
2022/10/01 08:55:08;;;;;;;2.43;1.30;;;;;;;11.99;87.72;99873.19;5050165;28;20498;-74
2022/10/01 08:57:42;;;;;;;3.72;1.38;;;;;;;12.01;87.28;99866.38;5031811;28;20489;-74
2022/10/01 09:00:16;;;;;;;2.88;1.52;;;;;;;12.03;87.80;99871.53;5051292;28;20393;-74
2022/10/01 09:02:43;;;;;;;3.87;1.90;;;;;;;12.06;87.57;99873.72;5045415;28;20401;-74
2022/10/01 09:05:24;;;;;;;19.25;1.95;;;;;;;12.09;87.75;99884.03;5040090;28;21121;-74
2022/10/01 09:08:10;;;;;;;6.65;1.50;;;;;;;12.07;87.94;99884.31;5051228;28;20409;-73
2022/10/01 09:10:44;;;;;;;6.18;2.53;;;;;;;12.05;87.61;99886.50;5040289;28;20832;-73
2022/10/01 09:13:31;;;;;;;5.75;1.58;;;;;;;12.01;88.04;99881.88;5052054;28;20386;-73
2022/10/01 09:15:56;;;;;;;6.88;2.03;;;;;;;12.07;88.18;99881.59;5051433;28;20385;-74
2022/10/01 09:18:22;;;;;;;3.93;1.30;;;;;;;12.10;88.29;99880.25;5051543;28;20480;-72
2022/10/01 09:20:56;;;;;;;4.47;2.03;;;;;;;12.07;88.20;99891.66;5048585;28;20413;-73
2022/10/01 09:23:28;;;;;;;3.47;1.30;;;;;;;12.04;88.44;99878.59;5050658;28;20421;-74
2022/10/01 09:25:57;;;;;;;2.58;1.88;;;;;;;12.06;88.60;99882.69;5051719;28;20390;-75
2022/10/01 09:28:27;;;;;;;1.15;1.08;;;;;;;12.06;88.93;99871.00;5051131;28;20399;-73
2022/10/01 09:31:15;;;;;;;3.25;1.80;;;;;;;11.98;89.14;99880.50;5055495;28;20804;-73
2022/10/01 09:33:43;;;;;;;3.65;1.80;;;;;;;11.97;89.36;99881.56;5047590;28;20444;-74
2022/10/01 09:36:14;;;;;;;7.03;2.17;;;;;;;12.01;89.23;99874.53;5050818;28;20744;-72
2022/10/01 09:39:13;;;;;;;2.80;1.98;;;;;;;12.09;88.92;99868.56;5049811;28;20412;-72
2022/10/01 09:41:38;;;;;;;2.15;1.15;;;;;;;12.18;89.07;99863.44;5034850;28;20782;-73
2022/10/01 09:44:04;;;;;;;4.32;1.48;;;;;;;12.25;88.27;99874.84;5050399;28;20499;-73
2022/10/01 09:46:30;;;;;;;1.70;1.10;;;;;;;12.29;88.25;99859.63;5048336;28;20481;-72
2022/10/01 09:49:07;;;;;;;2.55;1.42;;;;;;;12.31;88.11;99855.56;5046199;28;20488;-72
2022/10/01 09:51:47;;;;;;;1.42;1.13;;;;;;;12.36;88.19;99865.59;5048298;28;20428;-72
2022/10/01 09:54:20;;;;;;;3.42;1.67;;;;;;;12.41;88.52;99869.13;5052320;28;20402;-73
2022/10/01 09:56:58;;;;;;;1.23;1.20;;;;;;;12.48;88.03;99863.44;5052576;28;20436;-73
2022/10/01 09:59:33;;;;;;;1.67;1.20;;;;;;;12.50;88.21;99864.00;5047688;28;20402;-72
2022/10/01 10:02:02;;;;;;;1.88;1.10;;;;;;;12.46;88.09;99869.16;5047740;28;20399;-72
2022/10/01 10:04:29;;;;;;;1.40;1.30;;;;;;;12.40;88.34;99872.13;5054237;28;20487;-73
2022/10/01 10:07:03;;;;;;;1.25;1.25;;;;;;;12.37;88.96;99881.66;5053010;28;20499;-72
2022/10/01 10:09:34;;;;;;;0.90;0.90;;;;;;;12.40;89.04;99880.28;5055992;28;20404;-73
2022/10/01 10:12:00;;;;;;;1.98;1.02;;;;;;;12.41;89.03;99871.06;5053842;28;20401;-73
2022/10/01 10:14:41;;;;;;;2.15;0.90;;;;;;;12.46;89.39;99876.47;5054172;28;20471;-73
2022/10/01 10:17:16;;;;;;;1.10;1.10;;;;;;;12.52;89.08;99875.41;5055211;28;20416;-72
2022/10/01 10:19:50;;;;;;;1.63;0.95;;;;;;;12.51;89.07;99878.41;5046705;28;20401;-73
2022/10/01 10:22:24;;;;;;;1.80;1.00;;;;;;;12.50;88.99;99880.28;5035242;28;20975;-73
2022/10/01 10:24:52;;;;;;;1.48;0.98;;;;;;;12.52;88.89;99880.00;5053870;28;20417;-75
2022/10/01 10:27:27;;;;;;;1.07;1.07;;;;;;;12.53;88.91;99885.19;5059494;28;20407;-73
2022/10/01 10:30:09;;;;;;;1.20;1.10;;;;;;;12.63;88.80;99887.09;5053421;28;20524;-72
2022/10/01 10:32:35;;;;;;;1.02;1.00;;;;;;;12.65;88.71;99887.63;5053829;28;20448;-73
2022/10/01 10:35:09;;;;;;;2.20;0.93;;;;;;;12.62;88.90;99889.00;5060611;28;20502;-73
2022/10/01 10:37:36;;;;;;;2.53;1.00;;;;;;;12.60;89.04;99882.19;5047837;28;20419;-74
2022/10/01 10:40:05;;;;;;;1.00;1.00;;;;;;;12.63;89.16;99881.66;5051213;28;20753;-74
2022/10/01 10:42:32;;;;;;;2.75;1.17;;;;;;;12.66;88.97;99876.50;5046632;28;20745;-73
2022/10/01 10:45:02;;;;;;;1.20;1.10;;;;;;;12.67;89.16;99875.41;5047507;28;20413;-73
2022/10/01 10:47:30;;;;;;;1.63;0.90;;;;;;;12.69;89.34;99883.28;5042351;28;20926;-73
2022/10/01 10:50:00;;;;;;;1.05;1.05;;;;;;;12.69;89.07;99877.84;5042210;28;20405;-73
2022/10/01 10:52:28;;;;;;;2.28;1.02;;;;;;;12.65;89.05;99874.84;5037073;28;20440;-73
2022/10/01 10:54:58;;;;;;;1.17;1.08;;;;;;;12.63;89.27;99881.66;5035946;28;20405;-73
2022/10/01 10:57:35;;;;;;;0.70;0.70;;;;;;;12.62;89.57;99874.56;5034488;28;20411;-73
2022/10/01 11:00:03;;;;;;;0.77;0.70;;;;;;;12.68;89.27;99884.38;5045319;28;20499;-74
2022/10/01 11:02:31;;;;;;;0.80;0.80;;;;;;;12.63;89.34;99887.91;5038369;28;20932;-74
2022/10/01 11:05:02;;;;;;;1.23;1.23;;;;;;;12.65;89.41;99883.00;5038874;28;20413;-74
2022/10/01 11:07:28;;;;;;;5.32;2.50;;;;;;;12.66;89.94;99887.38;5039974;28;20448;-73
2022/10/01 11:10:32;;;;;;;1.43;1.20;;;;;;;12.65;89.94;99885.72;5037193;28;20511;-73
2022/10/01 11:13:17;;;;;;;1.10;1.10;;;;;;;12.62;90.19;99869.97;5013674;28;20409;-76
2022/10/01 11:16:11;;;;;;;1.02;1.00;;;;;;;12.64;90.16;99884.13;5038584;28;20412;-73
2022/10/01 11:18:47;;;;;;;1.27;1.02;;;;;;;12.63;90.11;99878.94;5032184;28;20420;-74
2022/10/01 11:21:43;;;;;;;1.92;1.83;;;;;;;12.67;90.32;99885.47;5047266;28;20402;-74
2022/10/01 11:24:31;;;;;;;0.73;0.73;;;;;;;12.69;89.80;99886.00;5044828;28;21030;-74
2022/10/01 11:27:14;;;;;;;0.82;0.80;;;;;;;12.75;89.64;99882.19;5037327;28;21222;-73
2022/10/01 11:30:00;;;;;;;2.10;0.80;;;;;;;12.84;89.33;99884.06;5040379;28;20400;-74
2022/10/01 11:32:37;;;;;;;2.40;1.55;;;;;;;12.88;88.80;99885.16;5040918;28;20421;-73
2022/10/01 11:35:28;;;;;;;1.67;1.57;;;;;;;12.93;88.98;99885.19;5022724;28;20479;-73
2022/10/01 11:38:34;;;;;;;2.13;1.40;;;;;;;12.97;88.81;99897.13;5039611;28;20986;-73
2022/10/01 11:40:59;;;;;;;2.72;2.28;;;;;;;12.92;89.03;99896.31;5042583;28;20423;-73
2022/10/01 11:43:35;;;;;;;3.07;1.87;;;;;;;12.92;88.96;99891.69;5040411;28;20503;-72
2022/10/01 11:46:10;;;;;;;2.78;2.05;;;;;;;12.91;89.12;99903.66;5034989;28;20500;-72
2022/10/01 11:48:50;;;;;;;3.63;3.05;;;;;;;12.93;89.10;99904.22;5045672;28;20409;-73
2022/10/01 11:51:26;;;;;;;1.90;1.75;;;;;;;12.98;88.53;99911.53;5023905;28;20416;-73